LSGGLSME

Guest
Details From LSGG - Geneva
To LSME - Emmen
Flight Number -
Tags decoded
Created
Modified
Stats Distance 111 nm / 205 km
Max Altitude 0 ft / 0 m
Waypoints 7
Social Downloads 3
Likes 0
Share VATSIM

Download

Looking for another format? Having issues loading an existing format? Contact us
Advertisement - Login to hide

Notes

Requested: LSGG MOLUS N871 SOSAL Z61 FRI G5 WIL LSME

Route

LSGG MOLUS N871 SOSAL FRI G5 WIL LSME

ID Type Via Altitude Latitude Longitude Leg Dist Tot Dist Heading (true) Name
O LSGG APT - 0 ft / 0 m 46.23775˚ 6.10617˚ - 0 nm - Geneva
MOLUS FIX - 0 ft / 0 m 46.44389˚ 6.67944˚ 26 nm 26 nm 62° / 63° -
SOSAL FIX N871 (AWY-LO) 0 ft / 0 m 46.55806˚ 6.88444˚ 10 nm 37 nm 51° / 51° -
FRI VOR - 0 ft / 0 m 46.77758˚ 7.22350˚ 19 nm 56 nm 47° / 47° FRIBOURG VOR-DME
FRI14 FIX G5 (AWY-LO) 0 ft / 0 m 46.87490˚ 7.38968˚ 8 nm 65 nm 49° / 50° -
WIL VOR G5 (AWY-LO) 0 ft / 0 m 47.17831˚ 7.90592˚ 27 nm 93 nm 49° / 49° WILLISAU VOR-DME
O LSME APT - 0 ft / 0 m 47.09237˚ 8.30512˚ 17 nm 110 nm 107° / 108° Emmen

Altitude Profile

Advertisement - Login to hide

LSGG

Details ICAO LSGG (GVA)
Name Geneva
Region Switzerland
Timezone Europe/Zurich (UTC+2.0)
Stats Elevation 1,410 ft / 430 m (AMSL)
Location 46.237755° 6.106173°
Runways 2
Magnetic Variation 1.810° E

METAR

LSGG 220820Z AUTO 06005KT 360V110 CAVOK 22/14 Q1016

Decode

TAF

TAF TAF LSGG 220825Z 2209/2315 VRB03KT 9999 FEW060 TX27/2215Z TN13/2304Z TX28/2315Z BECMG 2209/2211 05007KT BECMG 2219/2221 VRB02KT CAVOK BECMG 2305/2308 04010KT 9999 FEW045

Decode

Departure Runways

ID Width Length Bearing (true) Bearing (mag) Surface Threshold Offset Overrun Length
05 180 ft / 55 m 12,796 ft / 3,900 m 45.43° 43.62° Concrete 1,079 ft / 329 m 66 ft / 20 m
05L 98 ft / 30 m 2,701 ft / 823 m 45.44° 43.63° Grass 610 ft / 186 m 0 ft / 0 m
23 180 ft / 55 m 12,796 ft / 3,900 m 225.45° 223.64° Concrete 0 ft / 0 m 66 ft / 20 m
23R 98 ft / 30 m 2,701 ft / 823 m 225.45° 223.64° Grass 997 ft / 304 m 0 ft / 0 m

LSME

Details ICAO LSME
Name Emmen
Region Switzerland
Timezone Europe/Zurich (UTC+2.0)
Stats Elevation 1,400 ft / 427 m (AMSL)
Location 47.092369° 8.305118°
Runways 1
Magnetic Variation 2.357° E

METAR

LSME 220750Z VRB01KT 9999 FEW023 BKN081 21/14 Q1016 RMK BLU

Decode

TAF

Not found

Destination Runways

ID Width Length Bearing (true) Bearing (mag) Surface Threshold Offset Overrun Length
04 130 ft / 40 m 8,202 ft / 2,500 m 37.49° 35.13° Asphalt 363 ft / 111 m 810 ft / 247 m
22 130 ft / 40 m 8,202 ft / 2,500 m 217.51° 215.15° Asphalt 596 ft / 182 m 747 ft / 228 m

Approach Navaids

Runway Type Ident Frequency Range Bearing (true) Bearing (mag) Slope Elevation
22 Localiser IEM 110.35 MHz 18 nm / 33 km 217.57° 215.21° - 1,400 ft / 427 m (AMSL)
22 Glidescope IEM 110.35 MHz 10 nm / 19 km 217.50° 215.14° 4.00° 1,406 ft / 429 m (AMSL)
22 DME IEM 110.35 MHz 18 nm / 33 km - - - 1,406 ft / 429 m (AMSL)

Popular Alternatives